• Join FlightAware (Why Join?)
  • Login
  • US Flag 
01:27AM EST


 

Airport Tracker/Info


-or-


 

Live Flight TrackerFlight Track Log ✈ VH-FVW ✈ 19-Aug-2013 ✈ YTYH - YBAF

Flight Track Log - Related Links

Times and Time Zones

All times are in EDT time to prevent confusion due to time zone crossing. See the VH-FVW flight status page for this flight to view local times or setup timezone preferences in your user account.

Time Position Orientation Groundspeed Altitude Reporting Facility
EDT Latitude Longitude Course Direction KTS MPH feet Rate Location/Type
06:47PM -28.3944 153.5777 North 118 136 900  Level Aus ATC (RADAR)
06:48PM -28.3638 153.5831 North 106 122 1,300 360 Climbing Aus ATC (RADAR)
06:49PM -28.3400 153.5856 North 104 120 1,600 60 Climbing Aus ATC (RADAR)
06:49PM -28.3207 153.5859 North 117 135 1,400 -120 Descending Aus ATC (RADAR)
06:50PM -28.2959 153.5885 North 119 137 1,500  Climbing Aus ATC (RADAR)
06:51PM -28.2525 153.5880 359° North 113 130 1,500 -60 Level Aus ATC (RADAR)
06:52PM -28.2292 153.5773 338° Northwest 118 136 1,400  Descending Aus ATC (RADAR)
06:53PM -28.2110 153.5789 North 112 129 1,500  Climbing Aus ATC (RADAR)
06:53PM -28.1880 153.5735 348° North 111 128 1,400  Descending Aus ATC (RADAR)
06:54PM -28.1696 153.5655 339° North 106 122 1,500 60 Climbing Aus ATC (RADAR)
06:55PM -28.1520 153.5464 316° Northwest 104 120 1,500  Level Aus ATC (RADAR)
06:56PM -28.1457 153.5196 285° West 107 123 1,500 -60 Level Aus ATC (RADAR)
06:57PM -28.1147 153.4930 323° Northwest 111 128 1,400 -60 Descending Aus ATC (RADAR)
06:58PM -28.0884 153.4744 328° Northwest 111 128 1,400  Level Aus ATC (RADAR)
06:59PM -28.0670 153.4643 338° Northwest 111 128 1,400 60 Level Aus ATC (RADAR)
06:59PM -28.0502 153.4571 339° North 110 127 1,500  Climbing Aus ATC (RADAR)
07:00PM -28.0326 153.4505 342° North 112 129 1,400 -120 Descending Aus ATC (RADAR)
07:01PM -28.0129 153.4466 350° North 108 124 1,400  Level Aus ATC (RADAR)
07:02PM -27.9808 153.4415 352° North 108 124 1,400  Level Aus ATC (RADAR)
07:02PM -27.9636 153.4386 351° North 107 123 1,400  Level Aus ATC (RADAR)
07:03PM -27.9460 153.4367 355° North 108 124 1,400  Level Aus ATC (RADAR)
07:04PM -27.9233 153.4344 355° North 108 124 1,400  Level Aus ATC (RADAR)
07:05PM -27.8932 153.4275 349° North 110 127 1,500  Climbing Aus ATC (RADAR)
07:05PM -27.8712 153.4207 345° North 110 127 1,400 -120 Descending Aus ATC (RADAR)
07:06PM -27.8525 153.4118 337° Northwest 107 123 1,400  Level Aus ATC (RADAR)
07:07PM -27.8263 153.3894 323° Northwest 107 123 1,400  Level Aus ATC (RADAR)
07:08PM -27.8064 153.3628 310° West 108 124 1,500  Climbing Aus ATC (RADAR)
07:09PM -27.7890 153.3451 318° Northwest 112 129 1,400 -120 Descending Aus ATC (RADAR)
07:09PM -27.7764 153.3305 314° West 109 125 1,400  Level Aus ATC (RADAR)
07:10PM -27.7607 153.3099 311° West 114 131 1,400  Level Aus ATC (RADAR)
07:11PM -27.7377 153.2859 317° Northwest 112 129 1,400  Level Aus ATC (RADAR)
07:12PM -27.7147 153.2590 314° West 108 124 1,400  Level Aus ATC (RADAR)
07:16PM -27.6786 153.1962 303° West -420 Descending Aus ATC (Calculated)
07:17PM -27.6640 153.1707 303° West  Level FlightAware Approximate
07:18PM -27.6493 153.1451 303° West  Level FlightAware Approximate
07:19PM -27.6346 153.1195 303° West  Level FlightAware Approximate
07:19PM -27.6245 153.1021 303° West  Level Aus ATC (Calculated)
07:20PM -27.6199 153.0940 303° West  Level FlightAware Approximate
07:21PM -27.6096 153.0761 303° West  Level FlightAware Approximate
07:22PM -27.5949 153.0506 303° West  Level FlightAware Approximate
07:23PM -27.5802 153.0251 303° West  Level FlightAware Approximate
07:24PM -27.5703 153.0081 303° West  Level Estimated
07:25PM -27.5703 153.0081 206° Southwest  Level Estimated
07:26PM -27.5703 153.0081 304° West  Level Estimated
07:27PM -27.5703 153.0081 304° West  Level Estimated
07:28PM -27.5703 153.0081 304° West  Level Estimated